Harbor Captain — WDB3863 — position and weather

sailwx.info

Track history (hours):
 
Tides and Currents Weather Stations Pressure Air Temp Water Temp Dewpoint Dewpoint Depression Visibility Wind Speed Wind Dir Waves Ship Positions

Harbor Captain

Owner: PACIFIC TUGBOAT SERVICE INC, SAN DIEGO, CA. More information available from US FCC via Universal Licensing System and Coast Guard Vessel Documentation Center.

Last reported at 2018-Jul-17 15:54 UTC. Time now 2018-Jul-17 18:47 UTC.
Position N 32°42' W 117°09'.

Length 13 m; draft 2.2 m.

Type: Tug. MMSI: 366892140.

Date/timePositionNaut miles runAvg speedWind from/ knotsBaromVisibWave heightAir tempDewpointWater temp
2018-Jul-17 15:54N 32°42' W 117°09'4 2.5
2018-Jul-17 14:11N 32°38' W 117°07'0 0.7
2018-Jul-17 14:01N 32°38' W 117°06'1 1.0
2018-Jul-17 12:47N 32°39' W 117°07'  
2018-Jul-12 22:26N 32°42' W 117°09'0 0.0
2018-Jul-12 17:30N 32°42' W 117°09'0 0.0
2018-Jul-12 15:50N 32°42' W 117°09'0 0.0
2018-Jul-12 15:25N 32°42' W 117°09'0 0.3
2018-Jul-12 14:49N 32°42' W 117°09'2 0.1
2018-Jul-11 20:22N 32°43' W 117°11'0 0.3
2018-Jul-11 20:00N 32°43' W 117°11'0 0.5
2018-Jul-11 19:30N 32°43' W 117°11'0 0.4
2018-Jul-11 18:52N 32°43' W 117°11'2 0.1
2018-Jul-10 18:20N 32°41' W 117°09'0 0.2
2018-Jul-10 17:34N 32°41' W 117°09'0 0.1
2018-Jul-10 13:35N 32°42' W 117°09'  
Track history (hours):
 
Tides and Currents Weather Stations Pressure Air Temp Water Temp Dewpoint Dewpoint Depression Visibility Wind Speed Wind Dir Waves Ship Positions

Harbor Captain

Owner: PACIFIC TUGBOAT SERVICE INC, SAN DIEGO, CA. More information available from US FCC via Universal Licensing System and Coast Guard Vessel Documentation Center.

Last reported at 2018-Jul-17 15:54 UTC. Time now 2018-Jul-17 18:47 UTC.
Position N 32°42' W 117°09'.

Length 13 m; draft 2.2 m.

Type: Tug. MMSI: 366892140.

Date/timePositionNaut miles runAvg speedWind from/ knotsBaromVisibWave heightAir tempDewpointWater temp
2018-Jul-17 15:54N 32°42' W 117°09'4 2.5
2018-Jul-17 14:11N 32°38' W 117°07'0 0.7
2018-Jul-17 14:01N 32°38' W 117°06'1 1.0
2018-Jul-17 12:47N 32°39' W 117°07'  
2018-Jul-12 22:26N 32°42' W 117°09'0 0.0
2018-Jul-12 17:30N 32°42' W 117°09'0 0.0
2018-Jul-12 15:50N 32°42' W 117°09'0 0.0
2018-Jul-12 15:25N 32°42' W 117°09'0 0.3
2018-Jul-12 14:49N 32°42' W 117°09'2 0.1
2018-Jul-11 20:22N 32°43' W 117°11'0 0.3
2018-Jul-11 20:00N 32°43' W 117°11'0 0.5
2018-Jul-11 19:30N 32°43' W 117°11'0 0.4
2018-Jul-11 18:52N 32°43' W 117°11'2 0.1
2018-Jul-10 18:20N 32°41' W 117°09'0 0.2
2018-Jul-10 17:34N 32°41' W 117°09'0 0.1
2018-Jul-10 13:35N 32°42' W 117°09'  

Dump ship's entire track history